createdAt,value
2024-02-10T00:00:41.144Z,7.88
2024-02-10T00:03:08.456Z,8.73
2024-02-10T00:05:35.854Z,8.73
2024-02-10T00:08:02.882Z,8.32
2024-02-10T00:10:29.924Z,9.17
2024-02-10T00:12:57.548Z,9.80
2024-02-10T00:15:26.401Z,10.72
2024-02-10T00:17:53.520Z,8.07
2024-02-10T00:20:20.752Z,7.37
2024-02-10T00:22:51.093Z,6.05
2024-02-10T00:25:18.087Z,6.56
2024-02-10T00:27:45.067Z,6.32
2024-02-10T00:30:12.279Z,6.99
2024-02-10T00:32:39.866Z,6.17
2024-02-10T00:35:08.517Z,5.76
2024-02-10T00:37:36.099Z,6.11
2024-02-10T00:40:04.835Z,6.34
2024-02-10T00:42:31.848Z,6.26
2024-02-10T00:44:59.960Z,5.66
2024-02-10T00:47:27.410Z,5.95
2024-02-10T00:49:54.450Z,6.41
2024-02-10T00:52:21.555Z,5.02
2024-02-10T00:54:48.552Z,5.54
2024-02-10T00:57:15.815Z,6.27
2024-02-10T00:59:44.121Z,6.53
2024-02-10T01:02:12.889Z,8.50
2024-02-10T01:04:40.056Z,7.77
2024-02-10T01:07:10.438Z,6.88
2024-02-10T01:09:37.823Z,7.29
2024-02-10T01:12:06.042Z,7.27
2024-02-10T01:14:33.029Z,7.51
2024-02-10T01:17:02.960Z,7.81
2024-02-10T01:19:30.081Z,7.51
2024-02-10T01:22:01.576Z,8.05
2024-02-10T01:24:28.945Z,8.19
2024-02-10T01:27:01.070Z,7.46
2024-02-10T01:29:30.817Z,8.15
2024-02-10T01:31:57.885Z,8.47
2024-02-10T01:34:24.935Z,8.83
2024-02-10T01:36:54.700Z,9.24
2024-02-10T01:39:22.119Z,8.60
2024-02-10T01:41:49.424Z,10.07
2024-02-10T01:44:18.673Z,9.06
2024-02-10T01:46:45.839Z,8.06
2024-02-10T01:49:14.073Z,8.89
2024-02-10T01:51:41.035Z,7.85
2024-02-10T01:54:10.250Z,9.08
2024-02-10T01:56:40.073Z,8.32
2024-02-10T01:59:07.045Z,8.34
2024-02-10T02:01:34.154Z,9.61
2024-02-10T02:04:01.554Z,7.81
2024-02-10T02:06:28.811Z,10.72
2024-02-10T02:08:55.759Z,8.48
2024-02-10T02:11:22.755Z,7.39
2024-02-10T02:13:49.914Z,7.53
2024-02-10T02:16:18.353Z,7.58
2024-02-10T02:18:50.659Z,7.05
2024-02-10T02:21:17.634Z,8.28
2024-02-10T02:23:44.578Z,7.08
2024-02-10T02:26:11.964Z,6.57
2024-02-10T02:28:39.489Z,6.59
2024-02-10T02:31:06.917Z,6.00
2024-02-10T02:33:34.173Z,8.11
2024-02-10T02:36:01.804Z,8.58
2024-02-10T02:38:29.224Z,7.27
2024-02-10T02:40:56.821Z,6.56
2024-02-10T02:43:24.018Z,6.46
2024-02-10T02:45:51.013Z,7.77
2024-02-10T02:48:18.694Z,6.94
2024-02-10T02:50:45.949Z,7.79
2024-02-10T02:53:13.210Z,9.76
2024-02-10T02:55:40.671Z,10.95
2024-02-10T02:58:07.724Z,12.15
2024-02-10T03:00:34.733Z,11.92
2024-02-10T03:03:03.408Z,12.38
2024-02-10T03:05:31.593Z,12.80
2024-02-10T03:07:58.726Z,15.45
2024-02-10T03:10:26.023Z,12.50
2024-02-10T03:12:53.469Z,12.19
2024-02-10T03:15:20.452Z,11.51
2024-02-10T03:17:51.348Z,13.59
2024-02-10T03:20:18.860Z,12.21
2024-02-10T03:22:46.074Z,9.49
2024-02-10T03:25:13.130Z,9.99
2024-02-10T03:27:46.060Z,7.44
2024-02-10T03:30:13.284Z,7.11
2024-02-10T03:32:40.787Z,6.71
2024-02-10T03:35:10.843Z,7.08
2024-02-10T03:37:40.998Z,6.84
2024-02-10T03:40:10.384Z,6.66
2024-02-10T03:42:37.708Z,7.43
2024-02-10T03:45:07.236Z,7.28
2024-02-10T03:47:38.417Z,10.48
2024-02-10T03:50:05.785Z,9.25
2024-02-10T03:52:33.174Z,11.66
2024-02-10T03:55:00.432Z,9.32
2024-02-10T03:57:30.576Z,10.13
2024-02-10T03:59:57.508Z,11.89
2024-02-10T04:02:26.689Z,10.79
2024-02-10T04:04:57.500Z,11.57
2024-02-10T04:07:24.933Z,10.71
2024-02-10T04:09:53.528Z,10.79
2024-02-10T04:12:20.539Z,10.96
2024-02-10T04:14:47.696Z,9.13
2024-02-10T04:17:14.719Z,8.96
2024-02-10T04:19:41.683Z,8.30
2024-02-10T04:22:08.656Z,9.27
2024-02-10T04:24:35.609Z,9.07
2024-02-10T04:27:03.843Z,8.11
2024-02-10T04:29:32.145Z,9.11
2024-02-10T04:32:02.026Z,9.45
2024-02-10T04:34:29.339Z,8.12
2024-02-10T04:36:57.452Z,7.74
2024-02-10T04:39:25.988Z,7.21
2024-02-10T04:41:52.936Z,7.61
2024-02-10T04:44:19.975Z,8.53
2024-02-10T04:46:46.983Z,8.23
2024-02-10T04:49:14.031Z,8.84
2024-02-10T04:51:43.107Z,8.26
2024-02-10T04:54:10.526Z,8.04
2024-02-10T04:56:38.977Z,9.00
2024-02-10T04:59:06.256Z,9.98
2024-02-10T05:01:33.729Z,11.77
2024-02-10T05:04:00.871Z,10.64
2024-02-10T05:06:29.685Z,11.08
2024-02-10T05:08:56.665Z,11.62
2024-02-10T05:11:25.206Z,13.40
2024-02-10T05:13:52.098Z,13.40
2024-02-10T05:16:19.435Z,13.56
2024-02-10T05:18:50.293Z,13.41
2024-02-10T05:21:18.372Z,15.32
2024-02-10T05:23:45.284Z,14.39
2024-02-10T05:26:12.494Z,14.63
2024-02-10T05:28:39.293Z,14.79
2024-02-10T05:31:06.357Z,14.42
2024-02-10T05:33:37.032Z,14.61
2024-02-10T05:36:04.718Z,13.48
2024-02-10T05:38:34.537Z,13.70
2024-02-10T05:41:01.797Z,12.39
2024-02-10T05:43:29.051Z,12.12
2024-02-10T05:45:58.935Z,12.92
2024-02-10T05:48:25.810Z,12.37
2024-02-10T05:50:52.975Z,12.32
2024-02-10T05:53:19.981Z,11.47
2024-02-10T05:55:46.846Z,11.04
2024-02-10T05:58:13.644Z,10.68
2024-02-10T06:00:40.543Z,10.75
2024-02-10T06:03:07.355Z,10.51
2024-02-10T06:05:34.321Z,11.05
2024-02-10T06:08:03.160Z,11.08
2024-02-10T06:10:30.915Z,9.89
2024-02-10T06:12:58.239Z,10.00
2024-02-10T06:15:25.620Z,10.09
2024-02-10T06:17:54.965Z,10.01
2024-02-10T06:20:23.427Z,9.24
2024-02-10T06:22:51.508Z,9.98
2024-02-10T06:25:19.264Z,8.80
2024-02-10T06:27:47.137Z,9.44
2024-02-10T06:30:17.169Z,10.70
2024-02-10T06:32:49.717Z,9.79
2024-02-10T06:35:16.888Z,10.12
2024-02-10T06:37:43.985Z,10.47
2024-02-10T06:40:11.342Z,12.25
2024-02-10T06:42:39.418Z,11.09
2024-02-10T06:45:07.019Z,11.68
2024-02-10T06:47:35.151Z,11.16
2024-02-10T06:50:02.440Z,12.07
2024-02-10T06:52:29.616Z,14.66
2024-02-10T06:54:58.901Z,13.38
2024-02-10T06:57:25.866Z,13.23
2024-02-10T06:59:53.233Z,12.37
2024-02-10T07:02:20.667Z,13.58
2024-02-10T07:04:48.911Z,14.37
2024-02-10T07:07:15.997Z,14.58
2024-02-10T07:09:43.348Z,15.72
2024-02-10T07:12:10.283Z,17.83
2024-02-10T07:14:40.507Z,16.69
2024-02-10T07:17:10.457Z,17.42
2024-02-10T07:19:37.458Z,18.02
2024-02-10T07:22:04.636Z,17.34
2024-02-10T07:24:34.871Z,16.32
2024-02-10T07:27:02.381Z,16.65
2024-02-10T07:29:29.547Z,17.70
2024-02-10T07:31:56.783Z,16.56
2024-02-10T07:34:26.722Z,16.42
2024-02-10T07:36:57.318Z,16.08
2024-02-10T07:39:26.168Z,18.60
2024-02-10T07:41:54.525Z,16.94
2024-02-10T07:44:21.724Z,16.09
2024-02-10T07:46:48.897Z,18.25
2024-02-10T07:49:18.900Z,20.68
2024-02-10T07:51:46.738Z,18.84
2024-02-10T07:54:16.630Z,16.79
2024-02-10T07:56:46.352Z,16.43
2024-02-10T07:59:13.487Z,17.10
2024-02-10T08:01:40.879Z,18.47
2024-02-10T08:04:12.693Z,21.32
2024-02-10T08:06:39.530Z,15.41
2024-02-10T08:09:06.615Z,16.88
2024-02-10T08:11:33.492Z,17.10
2024-02-10T08:14:00.357Z,16.99
2024-02-10T08:16:27.499Z,20.12
2024-02-10T08:18:55.294Z,15.86
2024-02-10T08:21:23.662Z,15.60
2024-02-10T08:23:50.500Z,13.71
2024-02-10T08:26:18.029Z,12.31
2024-02-10T08:28:45.232Z,11.74
2024-02-10T08:31:12.540Z,11.42
2024-02-10T08:33:39.566Z,9.40
2024-02-10T08:36:07.638Z,10.26
2024-02-10T08:38:34.575Z,13.74
2024-02-10T08:41:01.628Z,14.18
2024-02-10T08:43:28.709Z,16.11
2024-02-10T08:45:57.825Z,15.47
2024-02-10T08:48:26.867Z,17.73
2024-02-10T08:50:55.151Z,16.99
2024-02-10T08:53:27.288Z,15.75
2024-02-10T08:55:54.259Z,15.00
2024-02-10T08:58:21.249Z,14.14
2024-02-10T09:00:48.333Z,13.57
2024-02-10T09:03:15.449Z,12.85
2024-02-10T09:05:42.880Z,15.68
2024-02-10T09:08:09.942Z,14.39
2024-02-10T09:10:38.940Z,14.16
2024-02-10T09:13:06.440Z,14.11
2024-02-10T09:15:33.393Z,15.20
2024-02-10T09:18:03.358Z,14.99
2024-02-10T09:20:30.842Z,14.59
2024-02-10T09:22:58.136Z,14.74
2024-02-10T09:25:25.168Z,14.94
2024-02-10T09:27:52.859Z,15.38
2024-02-10T09:30:19.874Z,15.81
2024-02-10T09:32:47.241Z,15.88
2024-02-10T09:35:15.515Z,15.09
2024-02-10T09:37:46.993Z,15.04
2024-02-10T09:40:14.206Z,14.88
2024-02-10T09:42:42.348Z,15.21
2024-02-10T09:45:09.677Z,13.90
2024-02-10T09:47:36.663Z,14.67
2024-02-10T09:50:04.029Z,13.67
2024-02-10T09:52:34.306Z,14.28
2024-02-10T09:55:01.349Z,14.10
2024-02-10T09:57:28.573Z,13.83
2024-02-10T09:59:55.515Z,14.06
2024-02-10T10:02:25.456Z,12.99
2024-02-10T10:04:52.972Z,13.70
2024-02-10T10:07:22.736Z,12.86
2024-02-10T10:09:51.308Z,13.17
2024-02-10T10:12:18.375Z,12.52
2024-02-10T10:14:45.676Z,12.77
2024-02-10T10:17:12.715Z,12.14
2024-02-10T10:19:39.836Z,11.67
2024-02-10T10:22:07.812Z,12.22
2024-02-10T10:24:35.434Z,11.80
2024-02-10T10:27:02.744Z,11.50
2024-02-10T10:29:29.795Z,11.37
2024-02-10T10:31:58.688Z,11.77
2024-02-10T10:34:50.608Z,12.14
2024-02-10T10:40:29.301Z,26.33
2024-02-10T10:43:00.534Z,16.69
2024-02-10T10:45:28.707Z,16.31
2024-02-10T10:48:08.429Z,11.44
2024-02-10T10:50:35.984Z,12.64
2024-02-10T10:53:04.827Z,13.12
2024-02-10T10:55:37.842Z,12.16
2024-02-10T10:58:08.857Z,11.63
2024-02-10T11:00:36.569Z,11.42
2024-02-10T11:03:04.500Z,10.46
2024-02-10T11:05:34.820Z,10.40
2024-02-10T11:08:02.912Z,10.99
2024-02-10T11:10:36.386Z,10.07
2024-02-10T11:13:06.723Z,10.36
2024-02-10T11:15:34.363Z,11.15
2024-02-10T11:18:01.625Z,9.37
2024-02-10T11:20:33.585Z,10.65
2024-02-10T11:23:18.973Z,8.28
2024-02-10T11:25:46.454Z,8.27
2024-02-10T11:28:25.086Z,8.94
2024-02-10T11:30:51.904Z,9.27
2024-02-10T11:33:23.298Z,8.04
2024-02-10T11:35:51.538Z,8.08
2024-02-10T11:38:18.435Z,8.91
2024-02-10T11:40:45.862Z,9.00
2024-02-10T11:43:13.668Z,9.01
2024-02-10T11:45:58.084Z,9.75
2024-02-10T11:48:27.502Z,11.60
2024-02-10T11:51:03.566Z,8.68
2024-02-10T11:53:31.750Z,9.63
2024-02-10T11:56:01.684Z,9.13
2024-02-10T11:58:29.782Z,9.43
2024-02-10T12:00:57.863Z,7.48
2024-02-10T12:03:25.214Z,7.78
2024-02-10T12:05:56.231Z,7.43
2024-02-10T12:08:23.051Z,7.54
2024-02-10T12:10:51.430Z,7.15
2024-02-10T12:13:21.659Z,7.04
2024-02-10T12:15:48.448Z,6.69
2024-02-10T12:18:15.690Z,7.06
2024-02-10T12:20:42.594Z,7.22
2024-02-10T12:23:13.075Z,7.50
2024-02-10T12:26:10.233Z,7.85
2024-02-10T12:28:53.368Z,7.40
2024-02-10T12:31:33.710Z,6.96
2024-02-10T12:34:01.315Z,7.38
2024-02-10T12:36:36.788Z,6.27
2024-02-10T12:39:16.081Z,6.71
2024-02-10T12:41:49.416Z,7.80
2024-02-10T12:44:35.496Z,8.73
2024-02-10T12:47:13.831Z,11.93
2024-02-10T12:49:47.150Z,10.94
2024-02-10T12:52:19.143Z,18.59
2024-02-10T12:55:34.999Z,10.50
2024-02-10T13:00:58.619Z,10.73
2024-02-10T13:03:25.523Z,12.46
2024-02-10T13:05:52.388Z,11.20
2024-02-10T13:08:19.201Z,11.19
2024-02-10T13:10:46.251Z,10.79
2024-02-10T13:13:15.052Z,11.74
2024-02-10T13:15:43.951Z,10.60
2024-02-10T13:18:11.801Z,10.54
2024-02-10T13:20:41.260Z,10.89
2024-02-10T13:23:08.588Z,11.17
2024-02-10T13:25:36.918Z,10.29
2024-02-10T13:28:06.198Z,9.92
2024-02-10T13:30:32.970Z,10.40
2024-02-10T13:32:59.756Z,10.97
2024-02-10T13:35:28.634Z,10.46
2024-02-10T13:37:56.345Z,10.52
2024-02-10T13:40:25.601Z,10.43
2024-02-10T13:42:52.574Z,11.03
2024-02-10T13:45:20.339Z,11.16
2024-02-10T13:47:47.571Z,12.82
2024-02-10T13:50:20.274Z,14.00
2024-02-10T13:52:47.751Z,14.06
2024-02-10T13:55:16.253Z,12.67
2024-02-10T13:57:43.196Z,13.88
2024-02-10T14:00:12.958Z,13.69
2024-02-10T14:02:45.425Z,13.71
2024-02-10T14:05:12.718Z,13.95
2024-02-10T14:07:40.182Z,15.99
2024-02-10T14:10:08.822Z,14.45
2024-02-10T14:12:35.886Z,15.06
2024-02-10T14:15:02.867Z,16.87
2024-02-10T14:17:29.824Z,17.34
2024-02-10T14:19:56.864Z,15.91
2024-02-10T14:22:23.992Z,15.38
2024-02-10T14:24:50.961Z,15.29
2024-02-10T14:27:17.919Z,14.58
2024-02-10T14:29:44.860Z,15.65
2024-02-10T14:32:12.543Z,15.00
2024-02-10T14:34:44.401Z,14.25
2024-02-10T14:37:14.309Z,16.44
2024-02-10T14:39:43.781Z,17.22
2024-02-10T14:42:12.233Z,15.63
2024-02-10T14:44:43.875Z,14.02
2024-02-10T14:47:28.381Z,15.48
2024-02-10T14:49:58.582Z,17.13
2024-02-10T14:52:25.668Z,18.42
2024-02-10T14:54:52.769Z,16.69
2024-02-10T14:57:19.560Z,15.50
2024-02-10T14:59:46.375Z,14.71
2024-02-10T15:02:13.172Z,15.48
2024-02-10T15:04:43.057Z,15.36
2024-02-10T15:07:11.291Z,14.76
2024-02-10T15:09:38.527Z,13.16
2024-02-10T15:12:05.744Z,14.08
2024-02-10T15:14:33.140Z,14.16
2024-02-10T15:16:59.990Z,12.80
2024-02-10T15:19:26.949Z,14.11
2024-02-10T15:21:55.836Z,15.05
2024-02-10T15:24:22.625Z,15.61
2024-02-10T15:26:52.501Z,15.25
2024-02-10T15:29:24.260Z,16.26
2024-02-10T15:31:54.457Z,16.62
2024-02-10T15:34:21.653Z,17.44
2024-02-10T15:36:50.951Z,14.65
2024-02-10T15:39:20.771Z,15.96
2024-02-10T15:41:50.010Z,19.29
2024-02-10T15:44:17.215Z,15.18
2024-02-10T15:46:44.068Z,15.16
2024-02-10T15:49:14.377Z,16.52
2024-02-10T15:51:41.643Z,15.58
2024-02-10T15:54:11.364Z,14.81
2024-02-10T15:56:45.732Z,14.52
2024-02-10T15:59:12.952Z,13.71
2024-02-10T16:01:40.101Z,14.13
2024-02-10T16:04:10.323Z,15.67
2024-02-10T16:06:37.287Z,17.07
2024-02-10T16:09:07.304Z,16.50
2024-02-10T16:11:35.186Z,16.21
2024-02-10T16:14:03.458Z,18.02
2024-02-10T16:16:31.296Z,15.88
2024-02-10T16:18:59.521Z,19.07
2024-02-10T16:21:26.519Z,17.44
2024-02-10T16:24:02.416Z,16.66
2024-02-10T16:26:30.657Z,17.54
2024-02-10T16:28:57.871Z,16.73
2024-02-10T16:31:25.042Z,17.62
2024-02-10T16:33:52.483Z,17.10
2024-02-10T16:36:19.887Z,17.36
2024-02-10T16:38:49.129Z,16.04
2024-02-10T16:41:22.409Z,18.50
2024-02-10T16:43:50.927Z,15.60
2024-02-10T16:46:18.539Z,16.52
2024-02-10T16:48:45.873Z,17.52
2024-02-10T16:51:22.695Z,15.03
2024-02-10T16:53:51.099Z,16.36
2024-02-10T16:56:20.209Z,16.91
2024-02-10T16:58:47.489Z,14.93
2024-02-10T17:01:14.913Z,14.76
2024-02-10T17:03:42.650Z,14.86
2024-02-10T17:06:10.099Z,16.17
2024-02-10T17:08:37.652Z,15.51
2024-02-10T17:11:04.756Z,16.82
2024-02-10T17:13:31.783Z,16.36
2024-02-10T17:15:58.742Z,14.53
2024-02-10T17:18:35.847Z,15.03
2024-02-10T17:21:08.899Z,14.16
2024-02-10T17:23:35.851Z,12.99
2024-02-10T17:26:06.040Z,15.16
2024-02-10T17:28:33.535Z,14.00
2024-02-10T17:31:01.536Z,14.24
2024-02-10T17:33:29.696Z,13.53
2024-02-10T17:35:58.862Z,13.47
2024-02-10T17:38:25.830Z,14.13
2024-02-10T17:40:53.137Z,14.20
2024-02-10T17:43:21.030Z,12.75
2024-02-10T17:45:48.500Z,13.98
2024-02-10T17:48:15.511Z,13.63
2024-02-10T17:50:43.121Z,13.74
2024-02-10T17:53:11.393Z,13.68
2024-02-10T17:55:39.841Z,15.96
2024-02-10T17:58:07.073Z,14.85
2024-02-10T18:00:34.289Z,13.76
2024-02-10T18:03:02.611Z,14.08
2024-02-10T18:05:29.742Z,15.64
2024-02-10T18:07:58.426Z,17.10
2024-02-10T18:10:25.788Z,17.66
2024-02-10T18:12:52.856Z,16.65
2024-02-10T18:15:20.166Z,17.07
2024-02-10T18:17:47.427Z,18.37
2024-02-10T18:20:17.426Z,16.26
2024-02-10T18:22:45.913Z,14.93
2024-02-10T18:25:13.273Z,17.09
2024-02-10T18:27:43.115Z,17.94
2024-02-10T18:30:13.475Z,16.95
2024-02-10T18:32:44.742Z,17.67
2024-02-10T18:35:14.510Z,17.23
2024-02-10T18:37:41.550Z,19.10
2024-02-10T18:40:22.439Z,17.61
2024-02-10T18:42:49.366Z,17.66
2024-02-10T18:45:20.015Z,18.77
2024-02-10T18:47:46.907Z,17.92
2024-02-10T18:50:14.626Z,19.43
2024-02-10T18:52:41.768Z,17.82
2024-02-10T18:55:08.635Z,18.64
2024-02-10T18:57:36.285Z,18.44
2024-02-10T19:00:05.310Z,19.53
2024-02-10T19:02:32.335Z,20.24
2024-02-10T19:04:59.240Z,19.36
2024-02-10T19:07:26.342Z,19.62
2024-02-10T19:09:55.911Z,20.97
2024-02-10T19:12:22.744Z,20.26
2024-02-10T19:14:49.535Z,22.78
2024-02-10T19:17:17.412Z,20.88
2024-02-10T19:19:47.267Z,22.33
2024-02-10T19:22:15.191Z,20.59
2024-02-10T19:24:43.459Z,19.37
2024-02-10T19:27:11.378Z,20.82
2024-02-10T19:29:38.441Z,20.59
2024-02-10T19:32:06.838Z,19.34
2024-02-10T19:34:38.987Z,19.25
2024-02-10T19:37:06.807Z,20.11
2024-02-10T19:39:33.763Z,16.54
2024-02-10T19:42:17.264Z,15.55
2024-02-10T19:44:44.713Z,15.05
2024-02-10T19:47:12.627Z,13.13
2024-02-10T19:49:39.669Z,10.43
2024-02-10T19:52:09.751Z,6.39
2024-02-10T19:54:36.666Z,4.97
2024-02-10T19:57:06.675Z,3.53
2024-02-10T19:59:42.115Z,2.94
2024-02-10T20:02:09.493Z,3.74
2024-02-10T20:04:36.602Z,4.17
2024-02-10T20:07:06.743Z,5.37
2024-02-10T20:09:36.517Z,4.48
2024-02-10T20:12:06.218Z,4.10
2024-02-10T20:14:37.993Z,3.80
2024-02-10T20:17:05.932Z,4.90
2024-02-10T20:19:32.989Z,2.74
2024-02-10T20:22:01.067Z,3.39
2024-02-10T20:24:27.909Z,3.15
2024-02-10T20:26:54.706Z,4.26
2024-02-10T20:29:21.510Z,3.24
2024-02-10T20:31:48.851Z,3.96
2024-02-10T20:34:15.732Z,3.93
2024-02-10T20:36:42.531Z,3.82
2024-02-10T20:39:11.149Z,5.96
2024-02-10T20:41:37.943Z,4.31
2024-02-10T20:44:07.326Z,3.81
2024-02-10T20:46:35.277Z,3.72
2024-02-10T20:49:02.226Z,3.36
2024-02-10T20:51:29.076Z,3.81
2024-02-10T20:53:58.689Z,4.30
2024-02-10T20:56:25.815Z,6.59
2024-02-10T20:58:52.621Z,5.59
2024-02-10T21:01:24.568Z,2.70
2024-02-10T21:03:51.463Z,4.54
2024-02-10T21:06:18.311Z,4.13
2024-02-10T21:08:45.118Z,4.78
2024-02-10T21:11:12.415Z,4.05
2024-02-10T21:13:39.346Z,3.60
2024-02-10T21:16:06.536Z,3.57
2024-02-10T21:18:33.401Z,3.27
2024-02-10T21:21:00.646Z,3.23
2024-02-10T21:23:27.575Z,2.55
2024-02-10T21:25:54.550Z,3.02
2024-02-10T21:28:24.345Z,3.15
2024-02-10T21:30:51.285Z,5.51
2024-02-10T21:33:18.285Z,3.75
2024-02-10T21:35:45.247Z,3.24
2024-02-10T21:38:15.134Z,3.12
2024-02-10T21:40:45.416Z,3.43
2024-02-10T21:43:12.185Z,2.61
2024-02-10T21:45:43.390Z,2.14
2024-02-10T21:48:14.440Z,6.20
2024-02-10T21:50:42.530Z,3.78
2024-02-10T21:53:11.457Z,1.79
2024-02-10T21:55:38.664Z,3.29
2024-02-10T21:58:05.701Z,2.20
2024-02-10T22:00:32.525Z,2.59
2024-02-10T22:03:01.774Z,2.71
2024-02-10T22:05:28.601Z,3.78
2024-02-10T22:07:58.993Z,4.12
2024-02-10T22:10:29.904Z,2.47
2024-02-10T22:12:56.683Z,3.19
2024-02-10T22:15:23.652Z,3.15
2024-02-10T22:17:51.444Z,4.25
2024-02-10T22:20:18.427Z,2.89
2024-02-10T22:22:45.373Z,5.14
2024-02-10T22:25:12.320Z,6.06
2024-02-10T22:27:39.665Z,4.64
2024-02-10T22:30:07.410Z,3.71
2024-02-10T22:32:34.240Z,3.41
2024-02-10T22:35:02.213Z,4.08
2024-02-10T22:37:30.488Z,3.75
2024-02-10T22:40:01.202Z,4.53
2024-02-10T22:42:29.360Z,10.28
2024-02-10T22:44:58.077Z,4.77
2024-02-10T22:47:25.101Z,5.27
2024-02-10T22:49:52.888Z,3.63
2024-02-10T22:52:20.250Z,4.77
2024-02-10T22:54:48.983Z,7.28
2024-02-10T22:57:15.957Z,8.51
2024-02-10T22:59:45.156Z,3.73
2024-02-10T23:02:13.152Z,3.89
2024-02-10T23:04:48.921Z,5.19
2024-02-10T23:07:18.603Z,7.60
2024-02-10T23:09:45.679Z,7.58
2024-02-10T23:12:16.161Z,5.06
2024-02-10T23:14:51.216Z,3.34
2024-02-10T23:17:19.727Z,4.31
2024-02-10T23:19:52.892Z,3.90
2024-02-10T23:22:27.258Z,4.62
2024-02-10T23:24:54.251Z,7.17
2024-02-10T23:27:21.658Z,4.36
2024-02-10T23:29:50.875Z,4.99
2024-02-10T23:32:19.931Z,3.17
2024-02-10T23:34:48.153Z,5.23
2024-02-10T23:37:16.380Z,4.55
2024-02-10T23:39:47.134Z,4.76
2024-02-10T23:42:16.552Z,4.81
2024-02-10T23:44:44.470Z,5.97
2024-02-10T23:47:19.294Z,4.47
2024-02-10T23:49:49.709Z,4.85
2024-02-10T23:52:16.963Z,3.80
2024-02-10T23:54:44.044Z,3.68
2024-02-10T23:57:11.535Z,3.71
2024-02-10T23:59:43.447Z,4.88
